Аэропорт: Орск. Орск

ICAO: UWOR

METAR:
2019-09-16 01:00:00
UWOR 160100Z 25008MPS 9999 SCT050CB 14/02 Q1011 R25/CLRD65 NOSIG RMK QFE735/0980
METAR:
2019-09-15 23:00:00
TAF UWOR 152300Z 1600/1609 25007G13MPS 9999 BKN020CB BKN030 TEMPO 1600/1609 28009G16MPS 3100 -TSRA BKN015CB